sensor_id;sensor_type;location;lat;lon;timestamp;P1;durP1;ratioP1;P2;durP2;ratioP2
25846;SDS011;13676;50.168;8.568;2023-09-19T00:00:22;3.60;;;1.10;;
25846;SDS011;13676;50.168;8.568;2023-09-19T00:02:56;2.28;;;1.17;;
25846;SDS011;13676;50.168;8.568;2023-09-19T00:05:24;1.75;;;0.98;;
25846;SDS011;13676;50.168;8.568;2023-09-19T00:07:54;2.88;;;1.25;;
25846;SDS011;13676;50.168;8.568;2023-09-19T00:10:24;1.92;;;1.20;;
25846;SDS011;13676;50.168;8.568;2023-09-19T00:12:54;3.42;;;1.30;;
25846;SDS011;13676;50.168;8.568;2023-09-19T00:15:20;3.38;;;1.35;;
25846;SDS011;13676;50.168;8.568;2023-09-19T00:17:48;3.50;;;1.38;;
25846;SDS011;13676;50.168;8.568;2023-09-19T00:20:14;2.67;;;1.00;;
25846;SDS011;13676;50.168;8.568;2023-09-19T00:22:42;2.03;;;1.20;;
25846;SDS011;13676;50.168;8.568;2023-09-19T00:25:11;3.13;;;1.02;;
25846;SDS011;13676;50.168;8.568;2023-09-19T00:27:39;2.28;;;1.20;;
25846;SDS011;13676;50.168;8.568;2023-09-19T00:30:05;3.00;;;1.27;;
25846;SDS011;13676;50.168;8.568;2023-09-19T00:32:33;3.47;;;1.63;;
25846;SDS011;13676;50.168;8.568;2023-09-19T00:34:58;2.72;;;1.02;;
25846;SDS011;13676;50.168;8.568;2023-09-19T00:37:24;3.97;;;1.27;;
25846;SDS011;13676;50.168;8.568;2023-09-19T00:39:49;2.42;;;1.45;;
25846;SDS011;13676;50.168;8.568;2023-09-19T00:42:19;3.22;;;1.05;;
25846;SDS011;13676;50.168;8.568;2023-09-19T00:44:46;1.63;;;1.20;;
25846;SDS011;13676;50.168;8.568;2023-09-19T00:47:12;3.35;;;1.27;;
25846;SDS011;13676;50.168;8.568;2023-09-19T00:49:45;1.52;;;1.05;;
25846;SDS011;13676;50.168;8.568;2023-09-19T00:52:15;2.42;;;1.08;;
25846;SDS011;13676;50.168;8.568;2023-09-19T00:54:44;2.40;;;1.27;;
25846;SDS011;13676;50.168;8.568;2023-09-19T00:57:10;2.85;;;1.05;;
25846;SDS011;13676;50.168;8.568;2023-09-19T00:59:36;3.75;;;1.88;;
25846;SDS011;13676;50.168;8.568;2023-09-19T01:02:02;1.98;;;1.00;;
25846;SDS011;13676;50.168;8.568;2023-09-19T01:04:29;2.22;;;1.00;;
25846;SDS011;13676;50.168;8.568;2023-09-19T01:06:54;2.53;;;1.30;;
25846;SDS011;13676;50.168;8.568;2023-09-19T01:09:20;2.78;;;1.00;;
25846;SDS011;13676;50.168;8.568;2023-09-19T01:11:47;2.30;;;1.00;;
25846;SDS011;13676;50.168;8.568;2023-09-19T01:17:05;2.95;;;1.27;;
25846;SDS011;13676;50.168;8.568;2023-09-19T01:22:37;3.00;;;1.20;;
25846;SDS011;13676;50.168;8.568;2023-09-19T01:28:20;4.18;;;1.25;;
25846;SDS011;13676;50.168;8.568;2023-09-19T01:30:58;3.38;;;1.20;;
25846;SDS011;13676;50.168;8.568;2023-09-19T01:33:25;2.60;;;1.20;;
25846;SDS011;13676;50.168;8.568;2023-09-19T01:35:51;2.58;;;1.10;;
25846;SDS011;13676;50.168;8.568;2023-09-19T01:38:18;2.15;;;1.08;;
25846;SDS011;13676;50.168;8.568;2023-09-19T01:40:47;2.53;;;1.20;;
25846;SDS011;13676;50.168;8.568;2023-09-19T01:43:20;3.58;;;1.25;;
25846;SDS011;13676;50.168;8.568;2023-09-19T01:46:04;2.47;;;1.23;;
25846;SDS011;13676;50.168;8.568;2023-09-19T01:54:30;4.53;;;1.58;;
25846;SDS011;13676;50.168;8.568;2023-09-19T01:57:03;3.42;;;1.35;;
25846;SDS011;13676;50.168;8.568;2023-09-19T01:59:36;3.78;;;1.58;;
25846;SDS011;13676;50.168;8.568;2023-09-19T02:02:05;2.80;;;1.15;;
25846;SDS011;13676;50.168;8.568;2023-09-19T02:04:32;1.67;;;1.10;;
25846;SDS011;13676;50.168;8.568;2023-09-19T02:06:59;4.95;;;1.50;;
25846;SDS011;13676;50.168;8.568;2023-09-19T02:09:26;3.60;;;1.27;;
25846;SDS011;13676;50.168;8.568;2023-09-19T02:11:51;3.20;;;1.23;;
25846;SDS011;13676;50.168;8.568;2023-09-19T02:14:17;4.22;;;1.40;;
25846;SDS011;13676;50.168;8.568;2023-09-19T02:16:44;2.45;;;1.20;;
25846;SDS011;13676;50.168;8.568;2023-09-19T02:19:12;2.22;;;1.20;;
25846;SDS011;13676;50.168;8.568;2023-09-19T02:21:38;2.88;;;0.98;;
25846;SDS011;13676;50.168;8.568;2023-09-19T02:24:05;2.13;;;1.40;;
25846;SDS011;13676;50.168;8.568;2023-09-19T02:26:33;2.05;;;1.30;;
25846;SDS011;13676;50.168;8.568;2023-09-19T02:29:01;4.75;;;1.58;;
25846;SDS011;13676;50.168;8.568;2023-09-19T02:31:30;4.05;;;1.20;;
25846;SDS011;13676;50.168;8.568;2023-09-19T02:33:55;3.92;;;1.63;;
25846;SDS011;13676;50.168;8.568;2023-09-19T02:36:22;2.05;;;1.17;;
25846;SDS011;13676;50.168;8.568;2023-09-19T02:38:48;3.00;;;1.50;;
25846;SDS011;13676;50.168;8.568;2023-09-19T02:41:14;3.38;;;1.80;;
25846;SDS011;13676;50.168;8.568;2023-09-19T02:43:40;5.88;;;1.85;;
25846;SDS011;13676;50.168;8.568;2023-09-19T02:46:05;3.58;;;1.40;;
25846;SDS011;13676;50.168;8.568;2023-09-19T02:48:31;2.92;;;1.25;;
25846;SDS011;13676;50.168;8.568;2023-09-19T02:50:58;3.10;;;1.70;;
25846;SDS011;13676;50.168;8.568;2023-09-19T02:53:23;2.10;;;1.10;;
25846;SDS011;13676;50.168;8.568;2023-09-19T02:55:49;2.75;;;1.30;;
25846;SDS011;13676;50.168;8.568;2023-09-19T02:58:15;3.50;;;1.63;;
25846;SDS011;13676;50.168;8.568;2023-09-19T03:00:41;2.40;;;1.52;;
25846;SDS011;13676;50.168;8.568;2023-09-19T03:03:07;2.70;;;1.52;;
25846;SDS011;13676;50.168;8.568;2023-09-19T03:05:33;3.70;;;1.60;;
25846;SDS011;13676;50.168;8.568;2023-09-19T03:07:59;3.28;;;1.70;;
25846;SDS011;13676;50.168;8.568;2023-09-19T03:10:28;2.00;;;1.10;;
25846;SDS011;13676;50.168;8.568;2023-09-19T03:12:55;2.53;;;1.30;;
25846;SDS011;13676;50.168;8.568;2023-09-19T03:15:20;2.22;;;1.20;;
25846;SDS011;13676;50.168;8.568;2023-09-19T03:17:47;1.52;;;0.90;;
25846;SDS011;13676;50.168;8.568;2023-09-19T03:20:13;2.97;;;1.25;;
25846;SDS011;13676;50.168;8.568;2023-09-19T03:22:42;4.13;;;1.13;;
25846;SDS011;13676;50.168;8.568;2023-09-19T03:25:08;2.78;;;1.30;;
25846;SDS011;13676;50.168;8.568;2023-09-19T03:27:34;6.50;;;1.27;;
25846;SDS011;13676;50.168;8.568;2023-09-19T03:30:00;3.13;;;1.42;;
25846;SDS011;13676;50.168;8.568;2023-09-19T03:32:30;2.17;;;1.35;;
25846;SDS011;13676;50.168;8.568;2023-09-19T03:34:56;4.05;;;1.48;;
25846;SDS011;13676;50.168;8.568;2023-09-19T03:37:21;3.75;;;1.40;;
25846;SDS011;13676;50.168;8.568;2023-09-19T03:39:46;4.80;;;1.27;;
25846;SDS011;13676;50.168;8.568;2023-09-19T03:42:12;3.70;;;1.67;;
25846;SDS011;13676;50.168;8.568;2023-09-19T03:44:37;3.58;;;1.33;;
25846;SDS011;13676;50.168;8.568;2023-09-19T03:47:04;5.63;;;1.90;;
25846;SDS011;13676;50.168;8.568;2023-09-19T03:49:30;5.18;;;1.65;;
25846;SDS011;13676;50.168;8.568;2023-09-19T03:51:55;2.33;;;1.55;;
25846;SDS011;13676;50.168;8.568;2023-09-19T03:54:21;3.63;;;1.70;;
25846;SDS011;13676;50.168;8.568;2023-09-19T03:56:46;4.18;;;1.65;;
25846;SDS011;13676;50.168;8.568;2023-09-19T03:59:12;2.33;;;1.40;;
25846;SDS011;13676;50.168;8.568;2023-09-19T04:01:38;2.60;;;1.50;;
25846;SDS011;13676;50.168;8.568;2023-09-19T04:04:06;2.60;;;1.40;;
25846;SDS011;13676;50.168;8.568;2023-09-19T04:06:35;2.65;;;1.42;;
25846;SDS011;13676;50.168;8.568;2023-09-19T04:09:00;1.77;;;1.30;;
25846;SDS011;13676;50.168;8.568;2023-09-19T04:11:27;2.53;;;1.50;;
25846;SDS011;13676;50.168;8.568;2023-09-19T04:13:53;3.80;;;1.40;;
25846;SDS011;13676;50.168;8.568;2023-09-19T04:16:18;2.75;;;1.63;;
25846;SDS011;13676;50.168;8.568;2023-09-19T04:18:45;3.35;;;1.35;;
25846;SDS011;13676;50.168;8.568;2023-09-19T04:21:11;4.13;;;1.70;;
25846;SDS011;13676;50.168;8.568;2023-09-19T04:23:37;6.05;;;1.52;;
25846;SDS011;13676;50.168;8.568;2023-09-19T04:26:02;7.45;;;1.58;;
25846;SDS011;13676;50.168;8.568;2023-09-19T04:28:29;4.15;;;1.75;;
25846;SDS011;13676;50.168;8.568;2023-09-19T04:30:56;7.18;;;2.00;;
25846;SDS011;13676;50.168;8.568;2023-09-19T04:33:21;1.90;;;1.60;;
25846;SDS011;13676;50.168;8.568;2023-09-19T04:35:48;2.92;;;1.60;;
25846;SDS011;13676;50.168;8.568;2023-09-19T04:38:18;2.72;;;1.40;;
25846;SDS011;13676;50.168;8.568;2023-09-19T04:40:44;4.57;;;1.83;;
25846;SDS011;13676;50.168;8.568;2023-09-19T04:43:10;2.95;;;1.80;;
25846;SDS011;13676;50.168;8.568;2023-09-19T04:45:35;2.35;;;1.70;;
25846;SDS011;13676;50.168;8.568;2023-09-19T04:48:00;3.10;;;1.30;;
25846;SDS011;13676;50.168;8.568;2023-09-19T04:50:27;3.42;;;1.60;;
25846;SDS011;13676;50.168;8.568;2023-09-19T04:52:53;1.85;;;1.30;;
25846;SDS011;13676;50.168;8.568;2023-09-19T04:55:18;2.33;;;1.08;;
25846;SDS011;13676;50.168;8.568;2023-09-19T04:57:48;3.47;;;1.40;;
25846;SDS011;13676;50.168;8.568;2023-09-19T05:00:24;3.35;;;1.42;;
25846;SDS011;13676;50.168;8.568;2023-09-19T05:02:52;4.53;;;1.50;;
25846;SDS011;13676;50.168;8.568;2023-09-19T05:05:21;3.10;;;1.20;;
25846;SDS011;13676;50.168;8.568;2023-09-19T05:07:48;4.35;;;1.60;;
25846;SDS011;13676;50.168;8.568;2023-09-19T05:10:14;3.30;;;1.40;;
25846;SDS011;13676;50.168;8.568;2023-09-19T05:12:40;2.95;;;1.40;;
25846;SDS011;13676;50.168;8.568;2023-09-19T05:15:08;2.80;;;1.42;;
25846;SDS011;13676;50.168;8.568;2023-09-19T05:17:34;4.82;;;1.60;;
25846;SDS011;13676;50.168;8.568;2023-09-19T05:20:01;2.03;;;1.30;;
25846;SDS011;13676;50.168;8.568;2023-09-19T05:22:43;7.47;;;1.50;;
25846;SDS011;13676;50.168;8.568;2023-09-19T05:25:11;4.57;;;1.30;;
25846;SDS011;13676;50.168;8.568;2023-09-19T05:27:42;3.30;;;1.50;;
25846;SDS011;13676;50.168;8.568;2023-09-19T05:30:08;3.20;;;1.10;;
25846;SDS011;13676;50.168;8.568;2023-09-19T05:32:34;4.60;;;1.52;;
25846;SDS011;13676;50.168;8.568;2023-09-19T05:34:59;2.95;;;1.40;;
25846;SDS011;13676;50.168;8.568;2023-09-19T05:37:26;2.65;;;1.52;;
25846;SDS011;13676;50.168;8.568;2023-09-19T05:39:51;2.85;;;1.55;;
25846;SDS011;13676;50.168;8.568;2023-09-19T05:42:18;1.97;;;1.60;;
25846;SDS011;13676;50.168;8.568;2023-09-19T05:44:43;2.45;;;1.40;;
25846;SDS011;13676;50.168;8.568;2023-09-19T05:47:08;2.55;;;1.20;;
25846;SDS011;13676;50.168;8.568;2023-09-19T05:49:35;3.05;;;1.27;;
25846;SDS011;13676;50.168;8.568;2023-09-19T05:52:04;2.63;;;1.58;;
25846;SDS011;13676;50.168;8.568;2023-09-19T05:54:32;9.35;;;1.65;;
25846;SDS011;13676;50.168;8.568;2023-09-19T05:56:59;4.57;;;1.20;;
25846;SDS011;13676;50.168;8.568;2023-09-19T05:59:28;3.30;;;1.63;;
25846;SDS011;13676;50.168;8.568;2023-09-19T06:01:53;4.10;;;1.95;;
25846;SDS011;13676;50.168;8.568;2023-09-19T06:04:19;4.25;;;1.90;;
25846;SDS011;13676;50.168;8.568;2023-09-19T06:06:46;2.70;;;1.58;;
25846;SDS011;13676;50.168;8.568;2023-09-19T06:09:12;5.97;;;1.92;;
25846;SDS011;13676;50.168;8.568;2023-09-19T06:11:38;6.53;;;1.80;;
25846;SDS011;13676;50.168;8.568;2023-09-19T06:14:03;7.00;;;2.10;;
25846;SDS011;13676;50.168;8.568;2023-09-19T06:16:31;4.28;;;1.63;;
25846;SDS011;13676;50.168;8.568;2023-09-19T06:18:58;5.78;;;1.88;;
25846;SDS011;13676;50.168;8.568;2023-09-19T06:21:27;4.38;;;1.63;;
25846;SDS011;13676;50.168;8.568;2023-09-19T06:23:53;4.78;;;1.55;;
25846;SDS011;13676;50.168;8.568;2023-09-19T06:26:18;6.75;;;1.88;;
25846;SDS011;13676;50.168;8.568;2023-09-19T06:28:44;4.13;;;1.80;;
25846;SDS011;13676;50.168;8.568;2023-09-19T06:31:09;6.85;;;1.77;;
25846;SDS011;13676;50.168;8.568;2023-09-19T06:33:35;3.53;;;1.60;;
25846;SDS011;13676;50.168;8.568;2023-09-19T06:36:06;14.88;;;2.42;;
25846;SDS011;13676;50.168;8.568;2023-09-19T06:38:32;10.95;;;1.95;;
25846;SDS011;13676;50.168;8.568;2023-09-19T06:41:00;7.80;;;1.67;;
25846;SDS011;13676;50.168;8.568;2023-09-19T06:43:26;1.55;;;1.17;;
25846;SDS011;13676;50.168;8.568;2023-09-19T06:45:53;5.10;;;2.30;;
25846;SDS011;13676;50.168;8.568;2023-09-19T06:48:19;5.32;;;1.70;;
25846;SDS011;13676;50.168;8.568;2023-09-19T06:53:15;4.72;;;1.92;;
25846;SDS011;13676;50.168;8.568;2023-09-19T06:55:41;5.00;;;1.98;;
25846;SDS011;13676;50.168;8.568;2023-09-19T06:58:08;5.95;;;2.20;;
25846;SDS011;13676;50.168;8.568;2023-09-19T07:00:35;6.10;;;2.38;;
25846;SDS011;13676;50.168;8.568;2023-09-19T07:03:02;8.20;;;2.25;;
25846;SDS011;13676;50.168;8.568;2023-09-19T07:05:31;5.75;;;1.70;;
25846;SDS011;13676;50.168;8.568;2023-09-19T07:08:01;5.38;;;1.92;;
25846;SDS011;13676;50.168;8.568;2023-09-19T07:10:27;8.75;;;1.98;;
25846;SDS011;13676;50.168;8.568;2023-09-19T07:13:03;7.90;;;2.05;;
25846;SDS011;13676;50.168;8.568;2023-09-19T07:15:32;5.32;;;2.00;;
25846;SDS011;13676;50.168;8.568;2023-09-19T07:18:03;6.20;;;1.85;;
25846;SDS011;13676;50.168;8.568;2023-09-19T07:20:32;4.15;;;1.80;;
25846;SDS011;13676;50.168;8.568;2023-09-19T07:22:59;4.72;;;2.00;;
25846;SDS011;13676;50.168;8.568;2023-09-19T07:27:57;6.22;;;1.90;;
25846;SDS011;13676;50.168;8.568;2023-09-19T07:30:25;5.15;;;2.03;;
25846;SDS011;13676;50.168;8.568;2023-09-19T07:32:52;8.70;;;2.38;;
25846;SDS011;13676;50.168;8.568;2023-09-19T07:35:17;7.93;;;2.17;;
25846;SDS011;13676;50.168;8.568;2023-09-19T07:37:50;3.78;;;1.90;;
25846;SDS011;13676;50.168;8.568;2023-09-19T07:40:16;2.88;;;1.38;;
25846;SDS011;13676;50.168;8.568;2023-09-19T07:42:42;6.43;;;1.90;;
25846;SDS011;13676;50.168;8.568;2023-09-19T07:45:09;3.13;;;1.70;;
25846;SDS011;13676;50.168;8.568;2023-09-19T07:47:40;4.25;;;2.08;;
25846;SDS011;13676;50.168;8.568;2023-09-19T07:50:12;5.15;;;1.70;;
25846;SDS011;13676;50.168;8.568;2023-09-19T07:52:41;6.10;;;2.08;;
25846;SDS011;13676;50.168;8.568;2023-09-19T07:55:08;4.35;;;1.73;;
25846;SDS011;13676;50.168;8.568;2023-09-19T07:57:37;4.40;;;1.67;;
25846;SDS011;13676;50.168;8.568;2023-09-19T08:00:03;5.38;;;1.77;;
25846;SDS011;13676;50.168;8.568;2023-09-19T08:02:36;4.10;;;1.50;;
25846;SDS011;13676;50.168;8.568;2023-09-19T08:05:12;4.28;;;1.63;;
25846;SDS011;13676;50.168;8.568;2023-09-19T08:07:42;5.55;;;1.70;;
25846;SDS011;13676;50.168;8.568;2023-09-19T08:10:15;5.18;;;1.60;;
25846;SDS011;13676;50.168;8.568;2023-09-19T08:12:45;5.28;;;2.10;;
25846;SDS011;13676;50.168;8.568;2023-09-19T08:15:17;6.05;;;2.00;;
25846;SDS011;13676;50.168;8.568;2023-09-19T08:17:49;4.53;;;1.60;;
25846;SDS011;13676;50.168;8.568;2023-09-19T08:20:19;4.15;;;1.55;;
25846;SDS011;13676;50.168;8.568;2023-09-19T08:22:47;7.22;;;1.90;;
25846;SDS011;13676;50.168;8.568;2023-09-19T08:25:18;4.90;;;1.83;;
25846;SDS011;13676;50.168;8.568;2023-09-19T08:27:45;3.13;;;1.70;;
25846;SDS011;13676;50.168;8.568;2023-09-19T08:30:17;6.38;;;1.67;;
25846;SDS011;13676;50.168;8.568;2023-09-19T08:32:48;4.00;;;1.40;;
25846;SDS011;13676;50.168;8.568;2023-09-19T08:35:19;3.38;;;1.52;;
25846;SDS011;13676;50.168;8.568;2023-09-19T08:37:45;5.07;;;1.55;;
25846;SDS011;13676;50.168;8.568;2023-09-19T08:40:13;6.85;;;1.90;;
25846;SDS011;13676;50.168;8.568;2023-09-19T08:42:48;5.00;;;1.65;;
25846;SDS011;13676;50.168;8.568;2023-09-19T08:45:22;4.45;;;1.80;;
25846;SDS011;13676;50.168;8.568;2023-09-19T08:56:13;6.38;;;1.98;;
25846;SDS011;13676;50.168;8.568;2023-09-19T09:01:37;8.52;;;1.98;;
25846;SDS011;13676;50.168;8.568;2023-09-19T09:06:34;9.18;;;1.98;;
25846;SDS011;13676;50.168;8.568;2023-09-19T09:09:02;7.53;;;1.60;;
25846;SDS011;13676;50.168;8.568;2023-09-19T09:11:29;3.63;;;1.70;;
25846;SDS011;13676;50.168;8.568;2023-09-19T09:13:56;5.30;;;1.70;;
25846;SDS011;13676;50.168;8.568;2023-09-19T09:16:29;4.35;;;1.60;;
25846;SDS011;13676;50.168;8.568;2023-09-19T09:18:55;3.13;;;1.55;;
25846;SDS011;13676;50.168;8.568;2023-09-19T09:21:21;4.95;;;2.00;;
25846;SDS011;13676;50.168;8.568;2023-09-19T09:23:50;5.10;;;1.75;;
25846;SDS011;13676;50.168;8.568;2023-09-19T09:27:03;6.97;;;1.80;;
25846;SDS011;13676;50.168;8.568;2023-09-19T09:29:04;12.70;;;1.55;;
25846;SDS011;13676;50.168;8.568;2023-09-19T09:31:29;6.97;;;2.08;;
25846;SDS011;13676;50.168;8.568;2023-09-19T09:33:55;8.18;;;1.83;;
25846;SDS011;13676;50.168;8.568;2023-09-19T09:36:33;6.50;;;1.63;;
25846;SDS011;13676;50.168;8.568;2023-09-19T09:38:59;4.72;;;1.80;;
25846;SDS011;13676;50.168;8.568;2023-09-19T09:41:40;6.82;;;1.98;;
25846;SDS011;13676;50.168;8.568;2023-09-19T09:44:13;5.82;;;1.60;;
25846;SDS011;13676;50.168;8.568;2023-09-19T09:46:44;4.55;;;1.80;;
25846;SDS011;13676;50.168;8.568;2023-09-19T09:49:25;10.65;;;2.42;;
25846;SDS011;13676;50.168;8.568;2023-09-19T09:52:02;5.85;;;2.10;;
25846;SDS011;13676;50.168;8.568;2023-09-19T09:55:00;6.10;;;1.97;;
25846;SDS011;13676;50.168;8.568;2023-09-19T09:57:30;4.35;;;1.77;;
25846;SDS011;13676;50.168;8.568;2023-09-19T09:59:58;10.23;;;2.28;;
25846;SDS011;13676;50.168;8.568;2023-09-19T10:02:37;11.73;;;2.55;;
25846;SDS011;13676;50.168;8.568;2023-09-19T10:05:15;3.83;;;1.90;;
25846;SDS011;13676;50.168;8.568;2023-09-19T10:08:12;5.97;;;2.00;;
25846;SDS011;13676;50.168;8.568;2023-09-19T10:10:41;4.35;;;2.00;;
25846;SDS011;13676;50.168;8.568;2023-09-19T10:13:07;3.15;;;1.38;;
25846;SDS011;13676;50.168;8.568;2023-09-19T10:15:37;6.30;;;2.00;;
25846;SDS011;13676;50.168;8.568;2023-09-19T10:18:06;5.43;;;1.70;;
25846;SDS011;13676;50.168;8.568;2023-09-19T10:20:35;5.47;;;2.20;;
25846;SDS011;13676;50.168;8.568;2023-09-19T10:23:07;11.20;;;2.38;;
25846;SDS011;13676;50.168;8.568;2023-09-19T10:25:36;9.32;;;2.85;;
25846;SDS011;13676;50.168;8.568;2023-09-19T10:28:05;8.07;;;2.50;;
25846;SDS011;13676;50.168;8.568;2023-09-19T10:30:36;8.85;;;2.45;;
25846;SDS011;13676;50.168;8.568;2023-09-19T10:33:08;8.00;;;2.38;;
25846;SDS011;13676;50.168;8.568;2023-09-19T10:35:34;5.30;;;2.50;;
25846;SDS011;13676;50.168;8.568;2023-09-19T10:38:05;6.78;;;2.28;;
25846;SDS011;13676;50.168;8.568;2023-09-19T10:40:32;9.23;;;3.03;;
25846;SDS011;13676;50.168;8.568;2023-09-19T10:43:03;8.93;;;2.78;;
25846;SDS011;13676;50.168;8.568;2023-09-19T10:45:32;8.00;;;2.35;;
25846;SDS011;13676;50.168;8.568;2023-09-19T10:48:03;7.90;;;2.70;;
25846;SDS011;13676;50.168;8.568;2023-09-19T10:50:31;9.80;;;2.77;;
25846;SDS011;13676;50.168;8.568;2023-09-19T10:53:00;8.77;;;2.40;;
25846;SDS011;13676;50.168;8.568;2023-09-19T10:55:29;7.15;;;2.30;;
25846;SDS011;13676;50.168;8.568;2023-09-19T10:57:56;6.82;;;2.70;;
25846;SDS011;13676;50.168;8.568;2023-09-19T11:03:37;4.68;;;2.03;;
25846;SDS011;13676;50.168;8.568;2023-09-19T11:08:56;5.90;;;2.08;;
25846;SDS011;13676;50.168;8.568;2023-09-19T11:11:45;8.45;;;2.40;;
25846;SDS011;13676;50.168;8.568;2023-09-19T11:30:50;6.50;;;2.22;;
25846;SDS011;13676;50.168;8.568;2023-09-19T11:33:23;6.40;;;2.30;;
25846;SDS011;13676;50.168;8.568;2023-09-19T11:46:26;8.48;;;2.50;;
25846;SDS011;13676;50.168;8.568;2023-09-19T11:48:53;8.50;;;2.38;;
25846;SDS011;13676;50.168;8.568;2023-09-19T11:51:19;6.07;;;1.92;;
25846;SDS011;13676;50.168;8.568;2023-09-19T11:53:52;9.10;;;2.47;;
25846;SDS011;13676;50.168;8.568;2023-09-19T11:56:21;6.90;;;1.90;;
25846;SDS011;13676;50.168;8.568;2023-09-19T11:58:52;5.05;;;1.80;;
25846;SDS011;13676;50.168;8.568;2023-09-19T12:01:23;7.78;;;2.40;;
25846;SDS011;13676;50.168;8.568;2023-09-19T12:03:54;6.72;;;2.22;;
25846;SDS011;13676;50.168;8.568;2023-09-19T12:06:22;11.00;;;2.55;;
25846;SDS011;13676;50.168;8.568;2023-09-19T12:08:49;9.35;;;2.22;;
25846;SDS011;13676;50.168;8.568;2023-09-19T12:11:16;7.30;;;2.30;;
25846;SDS011;13676;50.168;8.568;2023-09-19T12:13:46;5.85;;;2.15;;
25846;SDS011;13676;50.168;8.568;2023-09-19T12:16:17;10.05;;;2.58;;
25846;SDS011;13676;50.168;8.568;2023-09-19T12:18:46;5.93;;;2.30;;
25846;SDS011;13676;50.168;8.568;2023-09-19T12:21:31;5.68;;;2.22;;
25846;SDS011;13676;50.168;8.568;2023-09-19T12:24:07;5.70;;;1.88;;
25846;SDS011;13676;50.168;8.568;2023-09-19T12:26:41;7.13;;;2.33;;
25846;SDS011;13676;50.168;8.568;2023-09-19T12:29:21;13.57;;;2.70;;
25846;SDS011;13676;50.168;8.568;2023-09-19T12:31:55;9.02;;;2.40;;
25846;SDS011;13676;50.168;8.568;2023-09-19T12:34:29;7.22;;;2.13;;
25846;SDS011;13676;50.168;8.568;2023-09-19T12:37:12;6.32;;;2.10;;
25846;SDS011;13676;50.168;8.568;2023-09-19T12:39:49;8.18;;;2.20;;
25846;SDS011;13676;50.168;8.568;2023-09-19T12:42:17;4.75;;;1.83;;
25846;SDS011;13676;50.168;8.568;2023-09-19T12:44:49;7.07;;;2.38;;
25846;SDS011;13676;50.168;8.568;2023-09-19T12:47:22;6.30;;;2.13;;
25846;SDS011;13676;50.168;8.568;2023-09-19T12:52:54;6.50;;;1.80;;
25846;SDS011;13676;50.168;8.568;2023-09-19T12:55:25;8.00;;;2.10;;
25846;SDS011;13676;50.168;8.568;2023-09-19T13:00:48;6.50;;;1.98;;
25846;SDS011;13676;50.168;8.568;2023-09-19T13:06:02;6.97;;;1.88;;
25846;SDS011;13676;50.168;8.568;2023-09-19T13:08:35;5.25;;;1.95;;
25846;SDS011;13676;50.168;8.568;2023-09-19T13:11:15;4.60;;;1.90;;
25846;SDS011;13676;50.168;8.568;2023-09-19T13:16:24;9.32;;;2.40;;
25846;SDS011;13676;50.168;8.568;2023-09-19T13:18:54;3.72;;;1.70;;
25846;SDS011;13676;50.168;8.568;2023-09-19T13:24:19;4.55;;;2.00;;
25846;SDS011;13676;50.168;8.568;2023-09-19T13:26:45;8.25;;;2.10;;
25846;SDS011;13676;50.168;8.568;2023-09-19T13:29:10;7.53;;;1.83;;
25846;SDS011;13676;50.168;8.568;2023-09-19T13:31:36;8.35;;;2.28;;
25846;SDS011;13676;50.168;8.568;2023-09-19T13:34:06;8.75;;;1.90;;
25846;SDS011;13676;50.168;8.568;2023-09-19T13:36:32;5.68;;;2.17;;
25846;SDS011;13676;50.168;8.568;2023-09-19T13:38:58;5.43;;;2.00;;
25846;SDS011;13676;50.168;8.568;2023-09-19T13:41:26;3.53;;;1.50;;
25846;SDS011;13676;50.168;8.568;2023-09-19T13:43:53;6.53;;;1.85;;
25846;SDS011;13676;50.168;8.568;2023-09-19T13:46:22;6.50;;;2.22;;
25846;SDS011;13676;50.168;8.568;2023-09-19T13:48:52;7.03;;;2.25;;
25846;SDS011;13676;50.168;8.568;2023-09-19T13:51:22;8.95;;;2.10;;
25846;SDS011;13676;50.168;8.568;2023-09-19T13:53:50;5.65;;;2.15;;
25846;SDS011;13676;50.168;8.568;2023-09-19T13:56:19;5.60;;;1.90;;
25846;SDS011;13676;50.168;8.568;2023-09-19T13:58:45;5.93;;;1.80;;
25846;SDS011;13676;50.168;8.568;2023-09-19T14:01:10;5.53;;;1.55;;
25846;SDS011;13676;50.168;8.568;2023-09-19T14:03:38;2.55;;;1.40;;
25846;SDS011;13676;50.168;8.568;2023-09-19T14:06:04;6.72;;;2.10;;
25846;SDS011;13676;50.168;8.568;2023-09-19T14:08:29;4.95;;;1.73;;
25846;SDS011;13676;50.168;8.568;2023-09-19T14:10:55;4.70;;;1.45;;
25846;SDS011;13676;50.168;8.568;2023-09-19T14:13:21;4.90;;;1.70;;
25846;SDS011;13676;50.168;8.568;2023-09-19T14:15:46;4.80;;;1.60;;
25846;SDS011;13676;50.168;8.568;2023-09-19T14:18:12;5.30;;;1.80;;
25846;SDS011;13676;50.168;8.568;2023-09-19T14:20:38;5.93;;;1.50;;
25846;SDS011;13676;50.168;8.568;2023-09-19T14:23:05;4.95;;;1.42;;
25846;SDS011;13676;50.168;8.568;2023-09-19T14:25:33;6.60;;;1.90;;
25846;SDS011;13676;50.168;8.568;2023-09-19T14:27:59;8.50;;;1.98;;
25846;SDS011;13676;50.168;8.568;2023-09-19T14:30:26;3.80;;;1.60;;
25846;SDS011;13676;50.168;8.568;2023-09-19T14:32:52;4.90;;;1.80;;
25846;SDS011;13676;50.168;8.568;2023-09-19T14:35:21;4.28;;;1.35;;
25846;SDS011;13676;50.168;8.568;2023-09-19T14:37:48;3.00;;;1.40;;
25846;SDS011;13676;50.168;8.568;2023-09-19T14:40:25;3.72;;;1.48;;
25846;SDS011;13676;50.168;8.568;2023-09-19T14:42:55;7.25;;;1.95;;
25846;SDS011;13676;50.168;8.568;2023-09-19T14:45:20;5.15;;;1.70;;
25846;SDS011;13676;50.168;8.568;2023-09-19T14:47:46;9.85;;;1.70;;
25846;SDS011;13676;50.168;8.568;2023-09-19T14:50:11;6.47;;;1.42;;
25846;SDS011;13676;50.168;8.568;2023-09-19T14:52:40;3.97;;;1.42;;
25846;SDS011;13676;50.168;8.568;2023-09-19T14:55:06;4.32;;;1.77;;
25846;SDS011;13676;50.168;8.568;2023-09-19T14:57:34;3.67;;;1.52;;
25846;SDS011;13676;50.168;8.568;2023-09-19T14:59:59;7.13;;;1.90;;
25846;SDS011;13676;50.168;8.568;2023-09-19T15:02:26;5.07;;;1.48;;
25846;SDS011;13676;50.168;8.568;2023-09-19T15:04:53;3.23;;;1.17;;
25846;SDS011;13676;50.168;8.568;2023-09-19T15:07:18;4.82;;;1.42;;
25846;SDS011;13676;50.168;8.568;2023-09-19T15:09:44;3.17;;;1.38;;
25846;SDS011;13676;50.168;8.568;2023-09-19T15:12:10;6.00;;;1.40;;
25846;SDS011;13676;50.168;8.568;2023-09-19T15:14:40;4.78;;;1.58;;
25846;SDS011;13676;50.168;8.568;2023-09-19T15:17:07;5.72;;;1.83;;
25846;SDS011;13676;50.168;8.568;2023-09-19T15:19:32;5.93;;;1.90;;
25846;SDS011;13676;50.168;8.568;2023-09-19T15:21:57;5.53;;;1.75;;
25846;SDS011;13676;50.168;8.568;2023-09-19T15:24:23;5.35;;;2.67;;
25846;SDS011;13676;50.168;8.568;2023-09-19T15:26:52;7.13;;;2.38;;
25846;SDS011;13676;50.168;8.568;2023-09-19T15:29:18;7.55;;;1.88;;
25846;SDS011;13676;50.168;8.568;2023-09-19T15:31:45;4.60;;;1.90;;
25846;SDS011;13676;50.168;8.568;2023-09-19T15:34:11;6.35;;;1.80;;
25846;SDS011;13676;50.168;8.568;2023-09-19T15:36:39;5.05;;;1.60;;
25846;SDS011;13676;50.168;8.568;2023-09-19T15:39:08;4.50;;;1.90;;
25846;SDS011;13676;50.168;8.568;2023-09-19T15:41:41;3.20;;;1.25;;
25846;SDS011;13676;50.168;8.568;2023-09-19T15:44:14;4.40;;;1.58;;
25846;SDS011;13676;50.168;8.568;2023-09-19T15:46:40;3.97;;;1.30;;
25846;SDS011;13676;50.168;8.568;2023-09-19T15:49:08;6.40;;;1.60;;
25846;SDS011;13676;50.168;8.568;2023-09-19T15:51:34;2.35;;;1.27;;
25846;SDS011;13676;50.168;8.568;2023-09-19T15:54:12;3.80;;;1.27;;
25846;SDS011;13676;50.168;8.568;2023-09-19T15:56:41;4.35;;;1.20;;
25846;SDS011;13676;50.168;8.568;2023-09-19T15:59:07;7.15;;;1.63;;
25846;SDS011;13676;50.168;8.568;2023-09-19T16:01:34;5.85;;;1.60;;
25846;SDS011;13676;50.168;8.568;2023-09-19T16:03:59;4.28;;;1.55;;
25846;SDS011;13676;50.168;8.568;2023-09-19T16:06:26;3.95;;;1.13;;
25846;SDS011;13676;50.168;8.568;2023-09-19T16:08:58;4.15;;;1.38;;
25846;SDS011;13676;50.168;8.568;2023-09-19T16:11:24;3.85;;;1.10;;
25846;SDS011;13676;50.168;8.568;2023-09-19T16:13:55;4.00;;;1.30;;
25846;SDS011;13676;50.168;8.568;2023-09-19T16:16:21;1.70;;;1.02;;